sensor_id;sensor_type;location;lat;lon;timestamp;P1;durP1;ratioP1;P2;durP2;ratioP2
69837;SDS011;57135;51.992;4.476;2023-09-19T00:01:12;4.78;;;3.45;;
69837;SDS011;57135;51.992;4.476;2023-09-19T00:03:38;4.35;;;3.24;;
69837;SDS011;57135;51.992;4.476;2023-09-19T00:06:04;4.03;;;3.04;;
69837;SDS011;57135;51.992;4.476;2023-09-19T00:08:32;5.03;;;3.72;;
69837;SDS011;57135;51.992;4.476;2023-09-19T00:10:58;4.36;;;3.17;;
69837;SDS011;57135;51.992;4.476;2023-09-19T00:13:31;4.25;;;3.10;;
69837;SDS011;57135;51.992;4.476;2023-09-19T00:15:57;4.49;;;3.36;;
69837;SDS011;57135;51.992;4.476;2023-09-19T00:18:24;3.96;;;2.99;;
69837;SDS011;57135;51.992;4.476;2023-09-19T00:20:57;3.85;;;2.91;;
69837;SDS011;57135;51.992;4.476;2023-09-19T00:23:22;3.52;;;2.72;;
69837;SDS011;57135;51.992;4.476;2023-09-19T00:25:49;3.87;;;2.94;;
69837;SDS011;57135;51.992;4.476;2023-09-19T00:28:16;4.31;;;3.26;;
69837;SDS011;57135;51.992;4.476;2023-09-19T00:30:44;3.99;;;3.11;;
69837;SDS011;57135;51.992;4.476;2023-09-19T00:33:10;4.27;;;3.26;;
69837;SDS011;57135;51.992;4.476;2023-09-19T00:35:46;4.72;;;3.44;;
69837;SDS011;57135;51.992;4.476;2023-09-19T00:38:12;4.68;;;3.39;;
69837;SDS011;57135;51.992;4.476;2023-09-19T01:02:44;5.29;;;3.84;;
69837;SDS011;57135;51.992;4.476;2023-09-19T01:05:10;6.37;;;4.53;;
69837;SDS011;57135;51.992;4.476;2023-09-19T01:07:37;6.04;;;4.22;;
69837;SDS011;57135;51.992;4.476;2023-09-19T01:10:06;6.45;;;4.59;;
69837;SDS011;57135;51.992;4.476;2023-09-19T01:18:27;6.34;;;4.45;;
69837;SDS011;57135;51.992;4.476;2023-09-19T01:21:49;6.61;;;4.59;;
69837;SDS011;57135;51.992;4.476;2023-09-19T01:26:56;6.37;;;4.46;;
69837;SDS011;57135;51.992;4.476;2023-09-19T01:29:44;6.59;;;4.54;;
69837;SDS011;57135;51.992;4.476;2023-09-19T01:32:13;6.56;;;4.58;;
69837;SDS011;57135;51.992;4.476;2023-09-19T01:34:49;6.57;;;4.55;;
69837;SDS011;57135;51.992;4.476;2023-09-19T01:37:29;7.09;;;4.85;;
69837;SDS011;57135;51.992;4.476;2023-09-19T01:40:04;7.01;;;4.81;;
69837;SDS011;57135;51.992;4.476;2023-09-19T01:42:48;6.74;;;4.67;;
69837;SDS011;57135;51.992;4.476;2023-09-19T01:50:55;7.15;;;4.79;;
69837;SDS011;57135;51.992;4.476;2023-09-19T01:53:33;7.44;;;4.90;;
69837;SDS011;57135;51.992;4.476;2023-09-19T01:56:03;7.01;;;4.64;;
69837;SDS011;57135;51.992;4.476;2023-09-19T01:58:33;7.10;;;4.68;;
69837;SDS011;57135;51.992;4.476;2023-09-19T02:01:04;7.46;;;4.88;;
69837;SDS011;57135;51.992;4.476;2023-09-19T02:03:31;6.54;;;4.37;;
69837;SDS011;57135;51.992;4.476;2023-09-19T02:05:58;6.30;;;4.16;;
69837;SDS011;57135;51.992;4.476;2023-09-19T02:08:24;6.87;;;4.46;;
69837;SDS011;57135;51.992;4.476;2023-09-19T02:10:51;7.23;;;4.67;;
69837;SDS011;57135;51.992;4.476;2023-09-19T02:13:18;7.22;;;4.71;;
69837;SDS011;57135;51.992;4.476;2023-09-19T02:15:45;6.45;;;4.28;;
69837;SDS011;57135;51.992;4.476;2023-09-19T02:18:14;6.31;;;4.27;;
69837;SDS011;57135;51.992;4.476;2023-09-19T02:20:40;6.64;;;4.46;;
69837;SDS011;57135;51.992;4.476;2023-09-19T02:23:05;5.91;;;4.02;;
69837;SDS011;57135;51.992;4.476;2023-09-19T02:25:31;6.57;;;4.42;;
69837;SDS011;57135;51.992;4.476;2023-09-19T02:27:57;6.65;;;4.36;;
69837;SDS011;57135;51.992;4.476;2023-09-19T02:30:26;6.85;;;4.54;;
69837;SDS011;57135;51.992;4.476;2023-09-19T02:32:52;7.25;;;4.78;;
69837;SDS011;57135;51.992;4.476;2023-09-19T02:35:17;6.45;;;4.27;;
69837;SDS011;57135;51.992;4.476;2023-09-19T02:37:46;6.46;;;4.29;;
69837;SDS011;57135;51.992;4.476;2023-09-19T02:40:12;6.72;;;4.48;;
69837;SDS011;57135;51.992;4.476;2023-09-19T02:42:47;6.52;;;4.33;;
69837;SDS011;57135;51.992;4.476;2023-09-19T02:45:17;6.05;;;4.01;;
69837;SDS011;57135;51.992;4.476;2023-09-19T02:47:46;6.15;;;4.08;;
69837;SDS011;57135;51.992;4.476;2023-09-19T02:50:12;6.45;;;4.18;;
69837;SDS011;57135;51.992;4.476;2023-09-19T02:52:38;6.12;;;4.05;;
69837;SDS011;57135;51.992;4.476;2023-09-19T02:55:08;5.69;;;3.77;;
69837;SDS011;57135;51.992;4.476;2023-09-19T02:57:35;5.84;;;3.90;;
69837;SDS011;57135;51.992;4.476;2023-09-19T03:00:02;6.22;;;4.12;;
69837;SDS011;57135;51.992;4.476;2023-09-19T03:02:28;6.39;;;4.14;;
69837;SDS011;57135;51.992;4.476;2023-09-19T03:04:53;5.37;;;3.54;;
69837;SDS011;57135;51.992;4.476;2023-09-19T03:07:19;5.82;;;3.90;;
69837;SDS011;57135;51.992;4.476;2023-09-19T03:09:45;5.87;;;3.93;;
69837;SDS011;57135;51.992;4.476;2023-09-19T03:12:10;5.16;;;3.50;;
69837;SDS011;57135;51.992;4.476;2023-09-19T03:14:36;6.03;;;4.04;;
69837;SDS011;57135;51.992;4.476;2023-09-19T03:17:02;6.10;;;4.06;;
69837;SDS011;57135;51.992;4.476;2023-09-19T03:19:30;5.28;;;3.50;;
69837;SDS011;57135;51.992;4.476;2023-09-19T03:21:58;5.90;;;3.87;;
69837;SDS011;57135;51.992;4.476;2023-09-19T03:24:24;6.54;;;4.28;;
69837;SDS011;57135;51.992;4.476;2023-09-19T03:26:49;5.49;;;3.68;;
69837;SDS011;57135;51.992;4.476;2023-09-19T03:29:15;5.22;;;3.54;;
69837;SDS011;57135;51.992;4.476;2023-09-19T03:31:42;5.21;;;3.54;;
69837;SDS011;57135;51.992;4.476;2023-09-19T03:34:08;5.25;;;3.59;;
69837;SDS011;57135;51.992;4.476;2023-09-19T03:36:34;5.22;;;3.60;;
69837;SDS011;57135;51.992;4.476;2023-09-19T03:39:00;5.77;;;3.95;;
69837;SDS011;57135;51.992;4.476;2023-09-19T03:41:26;5.41;;;3.66;;
69837;SDS011;57135;51.992;4.476;2023-09-19T03:43:51;6.13;;;4.09;;
69837;SDS011;57135;51.992;4.476;2023-09-19T03:46:17;6.74;;;4.56;;
69837;SDS011;57135;51.992;4.476;2023-09-19T03:48:42;6.46;;;4.44;;
69837;SDS011;57135;51.992;4.476;2023-09-19T03:51:08;5.99;;;4.14;;
69837;SDS011;57135;51.992;4.476;2023-09-19T03:53:34;6.30;;;4.33;;
69837;SDS011;57135;51.992;4.476;2023-09-19T03:55:59;6.79;;;4.59;;
69837;SDS011;57135;51.992;4.476;2023-09-19T03:58:25;6.36;;;4.34;;
69837;SDS011;57135;51.992;4.476;2023-09-19T04:00:54;6.35;;;4.37;;
69837;SDS011;57135;51.992;4.476;2023-09-19T04:03:20;6.56;;;4.57;;
69837;SDS011;57135;51.992;4.476;2023-09-19T04:05:46;6.39;;;4.43;;
69837;SDS011;57135;51.992;4.476;2023-09-19T04:08:13;6.37;;;4.43;;
69837;SDS011;57135;51.992;4.476;2023-09-19T04:10:41;7.09;;;4.85;;
69837;SDS011;57135;51.992;4.476;2023-09-19T04:13:10;6.89;;;4.66;;
69837;SDS011;57135;51.992;4.476;2023-09-19T04:15:36;6.22;;;4.25;;
69837;SDS011;57135;51.992;4.476;2023-09-19T04:18:02;6.44;;;4.50;;
69837;SDS011;57135;51.992;4.476;2023-09-19T04:20:28;6.63;;;4.59;;
69837;SDS011;57135;51.992;4.476;2023-09-19T04:22:54;7.00;;;4.77;;
69837;SDS011;57135;51.992;4.476;2023-09-19T04:25:20;6.89;;;4.65;;
69837;SDS011;57135;51.992;4.476;2023-09-19T04:27:45;7.54;;;5.09;;
69837;SDS011;57135;51.992;4.476;2023-09-19T04:30:11;6.88;;;4.68;;
69837;SDS011;57135;51.992;4.476;2023-09-19T04:32:38;6.41;;;4.38;;
69837;SDS011;57135;51.992;4.476;2023-09-19T04:35:07;6.82;;;4.68;;
69837;SDS011;57135;51.992;4.476;2023-09-19T04:37:37;6.10;;;4.26;;
69837;SDS011;57135;51.992;4.476;2023-09-19T04:40:09;6.14;;;4.25;;
69837;SDS011;57135;51.992;4.476;2023-09-19T04:42:43;6.42;;;4.46;;
69837;SDS011;57135;51.992;4.476;2023-09-19T04:45:09;6.36;;;4.43;;
69837;SDS011;57135;51.992;4.476;2023-09-19T04:47:38;6.79;;;4.52;;
69837;SDS011;57135;51.992;4.476;2023-09-19T04:50:07;6.27;;;4.21;;
69837;SDS011;57135;51.992;4.476;2023-09-19T04:52:38;6.55;;;4.46;;
69837;SDS011;57135;51.992;4.476;2023-09-19T04:55:04;6.06;;;4.05;;
69837;SDS011;57135;51.992;4.476;2023-09-19T04:57:30;7.03;;;4.67;;
69837;SDS011;57135;51.992;4.476;2023-09-19T04:59:57;6.52;;;4.43;;
69837;SDS011;57135;51.992;4.476;2023-09-19T05:02:22;6.88;;;4.62;;
69837;SDS011;57135;51.992;4.476;2023-09-19T05:04:48;7.21;;;4.79;;
69837;SDS011;57135;51.992;4.476;2023-09-19T05:07:13;7.37;;;4.93;;
69837;SDS011;57135;51.992;4.476;2023-09-19T05:09:38;6.78;;;4.54;;
69837;SDS011;57135;51.992;4.476;2023-09-19T05:12:04;6.69;;;4.61;;
69837;SDS011;57135;51.992;4.476;2023-09-19T05:14:30;6.56;;;4.58;;
69837;SDS011;57135;51.992;4.476;2023-09-19T05:16:55;6.55;;;4.61;;
69837;SDS011;57135;51.992;4.476;2023-09-19T05:19:21;5.68;;;4.03;;
69837;SDS011;57135;51.992;4.476;2023-09-19T05:21:46;7.07;;;4.86;;
69837;SDS011;57135;51.992;4.476;2023-09-19T05:24:12;6.93;;;4.78;;
69837;SDS011;57135;51.992;4.476;2023-09-19T05:26:39;6.75;;;4.67;;
69837;SDS011;57135;51.992;4.476;2023-09-19T05:29:05;6.61;;;4.59;;
69837;SDS011;57135;51.992;4.476;2023-09-19T05:31:33;6.58;;;4.57;;
69837;SDS011;57135;51.992;4.476;2023-09-19T05:34:01;6.60;;;4.58;;
69837;SDS011;57135;51.992;4.476;2023-09-19T05:36:27;6.48;;;4.56;;
69837;SDS011;57135;51.992;4.476;2023-09-19T05:38:54;7.46;;;5.22;;
69837;SDS011;57135;51.992;4.476;2023-09-19T05:41:20;6.88;;;4.73;;
69837;SDS011;57135;51.992;4.476;2023-09-19T05:43:48;7.00;;;4.85;;
69837;SDS011;57135;51.992;4.476;2023-09-19T05:46:15;7.06;;;4.92;;
69837;SDS011;57135;51.992;4.476;2023-09-19T05:48:41;8.30;;;5.64;;
69837;SDS011;57135;51.992;4.476;2023-09-19T05:51:06;8.81;;;5.84;;
69837;SDS011;57135;51.992;4.476;2023-09-19T05:53:32;8.22;;;5.46;;
69837;SDS011;57135;51.992;4.476;2023-09-19T05:55:58;8.58;;;5.74;;
69837;SDS011;57135;51.992;4.476;2023-09-19T05:58:26;8.79;;;5.87;;
69837;SDS011;57135;51.992;4.476;2023-09-19T06:00:51;8.89;;;5.98;;
69837;SDS011;57135;51.992;4.476;2023-09-19T06:03:17;7.28;;;4.97;;
69837;SDS011;57135;51.992;4.476;2023-09-19T06:05:45;8.04;;;5.40;;
69837;SDS011;57135;51.992;4.476;2023-09-19T06:08:11;9.05;;;5.93;;
69837;SDS011;57135;51.992;4.476;2023-09-19T06:10:37;9.21;;;5.94;;
69837;SDS011;57135;51.992;4.476;2023-09-19T06:13:03;8.91;;;5.87;;
69837;SDS011;57135;51.992;4.476;2023-09-19T06:15:35;9.22;;;6.12;;
69837;SDS011;57135;51.992;4.476;2023-09-19T06:18:01;8.50;;;5.69;;
69837;SDS011;57135;51.992;4.476;2023-09-19T06:20:30;8.94;;;6.13;;
69837;SDS011;57135;51.992;4.476;2023-09-19T06:22:56;7.92;;;5.57;;
69837;SDS011;57135;51.992;4.476;2023-09-19T06:25:22;7.06;;;5.14;;
69837;SDS011;57135;51.992;4.476;2023-09-19T06:27:51;6.88;;;4.96;;
69837;SDS011;57135;51.992;4.476;2023-09-19T06:30:19;8.21;;;5.70;;
69837;SDS011;57135;51.992;4.476;2023-09-19T06:32:46;7.68;;;5.41;;
69837;SDS011;57135;51.992;4.476;2023-09-19T06:35:15;7.31;;;5.18;;
69837;SDS011;57135;51.992;4.476;2023-09-19T06:37:42;7.88;;;5.55;;
69837;SDS011;57135;51.992;4.476;2023-09-19T06:40:09;7.43;;;5.21;;
69837;SDS011;57135;51.992;4.476;2023-09-19T06:42:42;8.46;;;5.79;;
69837;SDS011;57135;51.992;4.476;2023-09-19T06:45:10;7.91;;;5.55;;
69837;SDS011;57135;51.992;4.476;2023-09-19T06:47:38;7.43;;;5.25;;
69837;SDS011;57135;51.992;4.476;2023-09-19T06:50:04;7.19;;;5.06;;
69837;SDS011;57135;51.992;4.476;2023-09-19T06:52:31;7.36;;;5.12;;
69837;SDS011;57135;51.992;4.476;2023-09-19T06:54:58;9.20;;;6.16;;
69837;SDS011;57135;51.992;4.476;2023-09-19T06:57:23;7.97;;;5.42;;
69837;SDS011;57135;51.992;4.476;2023-09-19T06:59:49;8.68;;;5.90;;
69837;SDS011;57135;51.992;4.476;2023-09-19T07:02:15;8.55;;;5.88;;
69837;SDS011;57135;51.992;4.476;2023-09-19T07:04:42;7.94;;;5.61;;
69837;SDS011;57135;51.992;4.476;2023-09-19T07:07:09;7.70;;;5.53;;
69837;SDS011;57135;51.992;4.476;2023-09-19T07:09:35;7.33;;;5.25;;
69837;SDS011;57135;51.992;4.476;2023-09-19T07:12:00;7.42;;;5.23;;
69837;SDS011;57135;51.992;4.476;2023-09-19T07:14:26;8.19;;;5.60;;
69837;SDS011;57135;51.992;4.476;2023-09-19T07:16:55;9.79;;;6.58;;
69837;SDS011;57135;51.992;4.476;2023-09-19T07:19:20;9.73;;;6.46;;
69837;SDS011;57135;51.992;4.476;2023-09-19T07:21:47;9.63;;;6.38;;
69837;SDS011;57135;51.992;4.476;2023-09-19T07:24:12;9.67;;;6.48;;
69837;SDS011;57135;51.992;4.476;2023-09-19T07:26:38;9.69;;;6.44;;
69837;SDS011;57135;51.992;4.476;2023-09-19T07:29:05;9.62;;;6.39;;
69837;SDS011;57135;51.992;4.476;2023-09-19T07:31:31;8.29;;;5.72;;
69837;SDS011;57135;51.992;4.476;2023-09-19T07:33:57;8.00;;;5.56;;
69837;SDS011;57135;51.992;4.476;2023-09-19T07:36:22;8.96;;;6.12;;
69837;SDS011;57135;51.992;4.476;2023-09-19T07:38:50;9.28;;;6.29;;
69837;SDS011;57135;51.992;4.476;2023-09-19T07:41:15;7.88;;;5.44;;
69837;SDS011;57135;51.992;4.476;2023-09-19T07:43:40;8.24;;;5.72;;
69837;SDS011;57135;51.992;4.476;2023-09-19T07:46:06;8.91;;;6.14;;
69837;SDS011;57135;51.992;4.476;2023-09-19T07:48:37;9.19;;;6.28;;
69837;SDS011;57135;51.992;4.476;2023-09-19T07:51:06;8.62;;;5.91;;
69837;SDS011;57135;51.992;4.476;2023-09-19T07:53:37;8.40;;;5.94;;
69837;SDS011;57135;51.992;4.476;2023-09-19T07:56:06;9.03;;;6.26;;
69837;SDS011;57135;51.992;4.476;2023-09-19T07:58:33;8.69;;;6.04;;
69837;SDS011;57135;51.992;4.476;2023-09-19T08:01:02;8.48;;;5.88;;
69837;SDS011;57135;51.992;4.476;2023-09-19T08:03:31;8.68;;;5.89;;
69837;SDS011;57135;51.992;4.476;2023-09-19T08:05:57;8.50;;;5.86;;
69837;SDS011;57135;51.992;4.476;2023-09-19T08:08:23;8.41;;;5.84;;
69837;SDS011;57135;51.992;4.476;2023-09-19T08:10:53;7.78;;;5.47;;
69837;SDS011;57135;51.992;4.476;2023-09-19T08:13:21;8.02;;;5.67;;
69837;SDS011;57135;51.992;4.476;2023-09-19T08:15:46;8.27;;;5.83;;
69837;SDS011;57135;51.992;4.476;2023-09-19T08:18:13;9.16;;;6.23;;
69837;SDS011;57135;51.992;4.476;2023-09-19T08:20:39;8.33;;;5.69;;
69837;SDS011;57135;51.992;4.476;2023-09-19T08:23:06;8.03;;;5.64;;
69837;SDS011;57135;51.992;4.476;2023-09-19T08:25:33;7.08;;;5.11;;
69837;SDS011;57135;51.992;4.476;2023-09-19T08:27:59;6.90;;;4.90;;
69837;SDS011;57135;51.992;4.476;2023-09-19T08:30:28;7.79;;;5.44;;
69837;SDS011;57135;51.992;4.476;2023-09-19T08:32:59;7.63;;;5.31;;
69837;SDS011;57135;51.992;4.476;2023-09-19T08:35:25;9.22;;;6.29;;
69837;SDS011;57135;51.992;4.476;2023-09-19T08:37:51;9.40;;;6.22;;
69837;SDS011;57135;51.992;4.476;2023-09-19T08:40:16;10.44;;;6.82;;
69837;SDS011;57135;51.992;4.476;2023-09-19T08:42:52;8.78;;;5.88;;
69837;SDS011;57135;51.992;4.476;2023-09-19T08:45:19;9.90;;;6.60;;
69837;SDS011;57135;51.992;4.476;2023-09-19T08:50:33;9.35;;;6.20;;
69837;SDS011;57135;51.992;4.476;2023-09-19T08:53:14;9.83;;;6.53;;
69837;SDS011;57135;51.992;4.476;2023-09-19T08:55:48;8.86;;;5.92;;
69837;SDS011;57135;51.992;4.476;2023-09-19T08:58:21;9.24;;;6.16;;
69837;SDS011;57135;51.992;4.476;2023-09-19T09:00:54;9.00;;;6.09;;
69837;SDS011;57135;51.992;4.476;2023-09-19T09:03:22;9.83;;;6.55;;
69837;SDS011;57135;51.992;4.476;2023-09-19T09:05:47;9.58;;;6.44;;
69837;SDS011;57135;51.992;4.476;2023-09-19T09:08:15;8.87;;;6.03;;
69837;SDS011;57135;51.992;4.476;2023-09-19T09:10:45;9.47;;;6.35;;
69837;SDS011;57135;51.992;4.476;2023-09-19T09:13:10;9.23;;;6.20;;
69837;SDS011;57135;51.992;4.476;2023-09-19T09:15:39;9.80;;;6.57;;
69837;SDS011;57135;51.992;4.476;2023-09-19T09:18:06;9.59;;;6.41;;
69837;SDS011;57135;51.992;4.476;2023-09-19T09:20:32;9.10;;;6.07;;
69837;SDS011;57135;51.992;4.476;2023-09-19T09:22:57;8.63;;;5.74;;
69837;SDS011;57135;51.992;4.476;2023-09-19T09:25:50;9.29;;;6.10;;
69837;SDS011;57135;51.992;4.476;2023-09-19T09:28:27;8.73;;;5.90;;
69837;SDS011;57135;51.992;4.476;2023-09-19T09:30:56;8.48;;;5.88;;
69837;SDS011;57135;51.992;4.476;2023-09-19T09:33:33;9.03;;;6.16;;
69837;SDS011;57135;51.992;4.476;2023-09-19T09:36:02;9.21;;;6.30;;
69837;SDS011;57135;51.992;4.476;2023-09-19T09:38:30;8.27;;;5.71;;
69837;SDS011;57135;51.992;4.476;2023-09-19T09:41:09;7.59;;;5.42;;
69837;SDS011;57135;51.992;4.476;2023-09-19T09:43:39;6.66;;;4.81;;
69837;SDS011;57135;51.992;4.476;2023-09-19T09:46:06;7.43;;;5.29;;
69837;SDS011;57135;51.992;4.476;2023-09-19T09:48:44;7.40;;;5.30;;
69837;SDS011;57135;51.992;4.476;2023-09-19T09:51:29;6.90;;;4.95;;
69837;SDS011;57135;51.992;4.476;2023-09-19T09:54:09;7.31;;;5.25;;
69837;SDS011;57135;51.992;4.476;2023-09-19T09:56:51;6.40;;;4.87;;
69837;SDS011;57135;51.992;4.476;2023-09-19T10:02:27;5.97;;;4.44;;
69837;SDS011;57135;51.992;4.476;2023-09-19T10:04:57;5.34;;;4.09;;
69837;SDS011;57135;51.992;4.476;2023-09-19T10:07:28;5.09;;;3.87;;
69837;SDS011;57135;51.992;4.476;2023-09-19T10:10:04;5.11;;;3.78;;
69837;SDS011;57135;51.992;4.476;2023-09-19T10:12:46;4.99;;;3.76;;
69837;SDS011;57135;51.992;4.476;2023-09-19T10:15:15;4.99;;;3.85;;
69837;SDS011;57135;51.992;4.476;2023-09-19T10:17:46;5.26;;;4.09;;
69837;SDS011;57135;51.992;4.476;2023-09-19T10:20:13;5.77;;;4.39;;
69837;SDS011;57135;51.992;4.476;2023-09-19T10:23:06;5.57;;;4.27;;
69837;SDS011;57135;51.992;4.476;2023-09-19T10:25:39;5.54;;;4.24;;
69837;SDS011;57135;51.992;4.476;2023-09-19T10:28:08;5.42;;;4.17;;
69837;SDS011;57135;51.992;4.476;2023-09-19T10:30:45;5.30;;;4.10;;
69837;SDS011;57135;51.992;4.476;2023-09-19T10:33:24;4.88;;;3.69;;
69837;SDS011;57135;51.992;4.476;2023-09-19T10:35:55;5.25;;;3.98;;
69837;SDS011;57135;51.992;4.476;2023-09-19T10:38:25;5.13;;;3.99;;
69837;SDS011;57135;51.992;4.476;2023-09-19T10:40:54;5.40;;;4.01;;
69837;SDS011;57135;51.992;4.476;2023-09-19T10:43:25;5.04;;;3.73;;
69837;SDS011;57135;51.992;4.476;2023-09-19T10:45:55;4.90;;;3.52;;
69837;SDS011;57135;51.992;4.476;2023-09-19T10:48:26;5.67;;;4.05;;
69837;SDS011;57135;51.992;4.476;2023-09-19T10:53:29;4.70;;;3.40;;
69837;SDS011;57135;51.992;4.476;2023-09-19T10:56:37;4.52;;;3.29;;
69837;SDS011;57135;51.992;4.476;2023-09-19T11:01:47;5.36;;;3.85;;
69837;SDS011;57135;51.992;4.476;2023-09-19T11:04:27;4.72;;;3.43;;
69837;SDS011;57135;51.992;4.476;2023-09-19T11:07:11;4.90;;;3.56;;
69837;SDS011;57135;51.992;4.476;2023-09-19T11:09:55;4.70;;;3.49;;
69837;SDS011;57135;51.992;4.476;2023-09-19T11:15:06;3.74;;;2.90;;
69837;SDS011;57135;51.992;4.476;2023-09-19T11:17:40;3.82;;;2.92;;
69837;SDS011;57135;51.992;4.476;2023-09-19T11:30:46;4.18;;;3.12;;
69837;SDS011;57135;51.992;4.476;2023-09-19T11:36:06;3.61;;;2.75;;
69837;SDS011;57135;51.992;4.476;2023-09-19T11:46:25;3.39;;;2.71;;
69837;SDS011;57135;51.992;4.476;2023-09-19T11:48:53;3.56;;;2.81;;
69837;SDS011;57135;51.992;4.476;2023-09-19T11:53:57;3.54;;;2.80;;
69837;SDS011;57135;51.992;4.476;2023-09-19T11:56:27;3.95;;;3.09;;
69837;SDS011;57135;51.992;4.476;2023-09-19T11:58:54;3.62;;;2.78;;
69837;SDS011;57135;51.992;4.476;2023-09-19T12:01:30;3.68;;;2.86;;
69837;SDS011;57135;51.992;4.476;2023-09-19T12:03:59;3.83;;;3.02;;
69837;SDS011;57135;51.992;4.476;2023-09-19T12:06:27;3.74;;;2.96;;
69837;SDS011;57135;51.992;4.476;2023-09-19T12:09:01;3.41;;;2.73;;
69837;SDS011;57135;51.992;4.476;2023-09-19T12:11:32;3.43;;;2.73;;
69837;SDS011;57135;51.992;4.476;2023-09-19T12:14:01;3.62;;;2.89;;
69837;SDS011;57135;51.992;4.476;2023-09-19T12:16:27;3.39;;;2.70;;
69837;SDS011;57135;51.992;4.476;2023-09-19T12:18:56;3.12;;;2.57;;
69837;SDS011;57135;51.992;4.476;2023-09-19T12:26:29;3.62;;;2.90;;
69837;SDS011;57135;51.992;4.476;2023-09-19T12:28:59;3.42;;;2.81;;
69837;SDS011;57135;51.992;4.476;2023-09-19T12:31:26;3.25;;;2.69;;
69837;SDS011;57135;51.992;4.476;2023-09-19T12:33:53;3.45;;;2.78;;
69837;SDS011;57135;51.992;4.476;2023-09-19T12:36:23;3.23;;;2.58;;
69837;SDS011;57135;51.992;4.476;2023-09-19T12:38:50;3.08;;;2.52;;
69837;SDS011;57135;51.992;4.476;2023-09-19T12:41:18;3.39;;;2.77;;
69837;SDS011;57135;51.992;4.476;2023-09-19T12:43:46;2.90;;;2.36;;
69837;SDS011;57135;51.992;4.476;2023-09-19T12:46:11;3.16;;;2.56;;
69837;SDS011;57135;51.992;4.476;2023-09-19T12:48:40;2.92;;;2.41;;
69837;SDS011;57135;51.992;4.476;2023-09-19T12:51:13;3.34;;;2.75;;
69837;SDS011;57135;51.992;4.476;2023-09-19T12:53:41;3.54;;;2.83;;
69837;SDS011;57135;51.992;4.476;2023-09-19T12:56:09;3.60;;;2.90;;
69837;SDS011;57135;51.992;4.476;2023-09-19T12:58:54;3.30;;;2.64;;
69837;SDS011;57135;51.992;4.476;2023-09-19T13:01:20;3.26;;;2.70;;
69837;SDS011;57135;51.992;4.476;2023-09-19T13:06:37;3.68;;;2.96;;
69837;SDS011;57135;51.992;4.476;2023-09-19T13:09:08;4.08;;;3.21;;
69837;SDS011;57135;51.992;4.476;2023-09-19T13:11:36;4.10;;;3.30;;
69837;SDS011;57135;51.992;4.476;2023-09-19T13:14:21;3.70;;;3.08;;
69837;SDS011;57135;51.992;4.476;2023-09-19T13:16:55;3.22;;;2.71;;
69837;SDS011;57135;51.992;4.476;2023-09-19T13:25:04;3.66;;;3.08;;
69837;SDS011;57135;51.992;4.476;2023-09-19T13:27:32;3.67;;;3.12;;
69837;SDS011;57135;51.992;4.476;2023-09-19T13:29:58;3.45;;;2.93;;
69837;SDS011;57135;51.992;4.476;2023-09-19T13:32:23;3.63;;;3.17;;
69837;SDS011;57135;51.992;4.476;2023-09-19T13:34:49;3.20;;;2.85;;
69837;SDS011;57135;51.992;4.476;2023-09-19T13:37:16;3.42;;;3.02;;
69837;SDS011;57135;51.992;4.476;2023-09-19T13:39:43;3.60;;;3.10;;
69837;SDS011;57135;51.992;4.476;2023-09-19T13:42:13;4.18;;;3.56;;
69837;SDS011;57135;51.992;4.476;2023-09-19T13:44:38;4.22;;;3.56;;
69837;SDS011;57135;51.992;4.476;2023-09-19T13:47:06;4.53;;;3.81;;
69837;SDS011;57135;51.992;4.476;2023-09-19T13:49:35;4.31;;;3.57;;
69837;SDS011;57135;51.992;4.476;2023-09-19T13:52:01;4.30;;;3.60;;
69837;SDS011;57135;51.992;4.476;2023-09-19T13:54:29;4.36;;;3.69;;
69837;SDS011;57135;51.992;4.476;2023-09-19T13:56:55;4.43;;;3.64;;
69837;SDS011;57135;51.992;4.476;2023-09-19T13:59:20;4.82;;;3.86;;
69837;SDS011;57135;51.992;4.476;2023-09-19T14:01:48;4.83;;;3.81;;
69837;SDS011;57135;51.992;4.476;2023-09-19T14:04:15;5.26;;;4.06;;
69837;SDS011;57135;51.992;4.476;2023-09-19T14:06:42;4.69;;;3.71;;
69837;SDS011;57135;51.992;4.476;2023-09-19T14:09:08;3.83;;;3.15;;
69837;SDS011;57135;51.992;4.476;2023-09-19T14:11:35;3.70;;;3.13;;
69837;SDS011;57135;51.992;4.476;2023-09-19T14:14:01;4.48;;;3.80;;
69837;SDS011;57135;51.992;4.476;2023-09-19T14:16:27;4.05;;;3.49;;
69837;SDS011;57135;51.992;4.476;2023-09-19T14:18:56;4.40;;;3.85;;
69837;SDS011;57135;51.992;4.476;2023-09-19T14:21:23;4.91;;;4.17;;
69837;SDS011;57135;51.992;4.476;2023-09-19T14:23:49;4.74;;;4.01;;
69837;SDS011;57135;51.992;4.476;2023-09-19T14:26:15;4.25;;;3.62;;
69837;SDS011;57135;51.992;4.476;2023-09-19T14:28:44;4.13;;;3.58;;
69837;SDS011;57135;51.992;4.476;2023-09-19T14:31:10;4.60;;;3.88;;
69837;SDS011;57135;51.992;4.476;2023-09-19T14:33:36;4.42;;;3.69;;
69837;SDS011;57135;51.992;4.476;2023-09-19T14:36:09;4.97;;;4.14;;
69837;SDS011;57135;51.992;4.476;2023-09-19T14:38:36;4.88;;;3.99;;
69837;SDS011;57135;51.992;4.476;2023-09-19T14:41:02;4.63;;;3.85;;
69837;SDS011;57135;51.992;4.476;2023-09-19T14:43:29;5.02;;;4.13;;
69837;SDS011;57135;51.992;4.476;2023-09-19T14:46:07;5.01;;;4.15;;
69837;SDS011;57135;51.992;4.476;2023-09-19T14:48:33;4.57;;;3.87;;
69837;SDS011;57135;51.992;4.476;2023-09-19T14:51:17;4.71;;;3.90;;
69837;SDS011;57135;51.992;4.476;2023-09-19T14:53:44;5.97;;;4.72;;
69837;SDS011;57135;51.992;4.476;2023-09-19T14:56:11;5.57;;;4.56;;
69837;SDS011;57135;51.992;4.476;2023-09-19T14:58:37;5.05;;;4.20;;
69837;SDS011;57135;51.992;4.476;2023-09-19T15:01:07;5.02;;;4.28;;
69837;SDS011;57135;51.992;4.476;2023-09-19T15:03:37;5.19;;;4.39;;
69837;SDS011;57135;51.992;4.476;2023-09-19T15:06:08;5.31;;;4.45;;
69837;SDS011;57135;51.992;4.476;2023-09-19T15:08:34;5.37;;;4.51;;
69837;SDS011;57135;51.992;4.476;2023-09-19T15:11:06;5.21;;;4.35;;
69837;SDS011;57135;51.992;4.476;2023-09-19T15:13:33;5.76;;;4.73;;
69837;SDS011;57135;51.992;4.476;2023-09-19T15:16:03;5.46;;;4.45;;
69837;SDS011;57135;51.992;4.476;2023-09-19T15:18:33;5.25;;;4.35;;
69837;SDS011;57135;51.992;4.476;2023-09-19T15:21:02;5.48;;;4.50;;
69837;SDS011;57135;51.992;4.476;2023-09-19T15:23:29;5.84;;;4.81;;
69837;SDS011;57135;51.992;4.476;2023-09-19T15:25:56;5.67;;;4.67;;
69837;SDS011;57135;51.992;4.476;2023-09-19T15:28:22;4.95;;;4.12;;
69837;SDS011;57135;51.992;4.476;2023-09-19T15:30:48;5.08;;;4.33;;
69837;SDS011;57135;51.992;4.476;2023-09-19T15:33:15;5.63;;;4.68;;
69837;SDS011;57135;51.992;4.476;2023-09-19T15:35:42;5.27;;;4.34;;
69837;SDS011;57135;51.992;4.476;2023-09-19T15:38:08;5.45;;;4.42;;
69837;SDS011;57135;51.992;4.476;2023-09-19T15:40:33;5.29;;;4.39;;
69837;SDS011;57135;51.992;4.476;2023-09-19T15:42:59;5.48;;;4.56;;
69837;SDS011;57135;51.992;4.476;2023-09-19T15:45:25;5.03;;;4.25;;
69837;SDS011;57135;51.992;4.476;2023-09-19T15:47:51;4.93;;;4.12;;
69837;SDS011;57135;51.992;4.476;2023-09-19T15:50:16;5.51;;;4.47;;
69837;SDS011;57135;51.992;4.476;2023-09-19T15:52:42;5.51;;;4.48;;
69837;SDS011;57135;51.992;4.476;2023-09-19T15:55:08;5.52;;;4.41;;
69837;SDS011;57135;51.992;4.476;2023-09-19T15:57:36;5.43;;;4.39;;
69837;SDS011;57135;51.992;4.476;2023-09-19T16:00:03;4.69;;;3.98;;
69837;SDS011;57135;51.992;4.476;2023-09-19T16:02:35;5.22;;;4.33;;
69837;SDS011;57135;51.992;4.476;2023-09-19T16:05:01;5.43;;;4.52;;
69837;SDS011;57135;51.992;4.476;2023-09-19T16:07:32;5.45;;;4.49;;
69837;SDS011;57135;51.992;4.476;2023-09-19T16:09:58;5.06;;;4.24;;
69837;SDS011;57135;51.992;4.476;2023-09-19T16:12:25;4.73;;;3.93;;
69837;SDS011;57135;51.992;4.476;2023-09-19T16:14:51;4.80;;;4.08;;
69837;SDS011;57135;51.992;4.476;2023-09-19T16:17:16;5.04;;;4.25;;
69837;SDS011;57135;51.992;4.476;2023-09-19T16:19:43;5.53;;;4.62;;
69837;SDS011;57135;51.992;4.476;2023-09-19T16:22:09;5.21;;;4.41;;
69837;SDS011;57135;51.992;4.476;2023-09-19T16:24:34;5.25;;;4.39;;